Alamos, Argentina
Current Conditions -  °F | °C
As of 2:00 PM on Thursday 27 Nov 2014 (Local Time) from SAEZ Reporting Station
Clear Clear  
Wind Chill: 82°   Ceiling: Unl
Heat Index: 82°   Visibility: 6mi
Dew Point: 48°   Wind: 13mph
Humidity: 30%   Direction: 20°NNE
Pressure: 29.97"   Gusts: NA
Location:  36.97°S, 62.38°W
Report Text: SAEZ 271700Z 02011KT 340V060 CAVOK 28/09 Q1015
Loading
Personal Weather Stations






























Interactive Weather Map New forecast layout! Learn more

10-Day Weather Forecast

Advertisements
Track Severe Weather on mobile